sensor_id;sensor_type;location;lat;lon;timestamp;temperature;humidity
3818;DHT22;1924;48.078;11.516;2024-03-02T00:01:05;6.90;99.90
3818;DHT22;1924;48.078;11.516;2024-03-02T00:03:32;6.90;99.90
3818;DHT22;1924;48.078;11.516;2024-03-02T00:05:59;6.90;99.90
3818;DHT22;1924;48.078;11.516;2024-03-02T00:08:27;6.90;99.90
3818;DHT22;1924;48.078;11.516;2024-03-02T00:10:57;7.00;99.90
3818;DHT22;1924;48.078;11.516;2024-03-02T00:13:25;7.00;99.90
3818;DHT22;1924;48.078;11.516;2024-03-02T00:15:53;6.90;99.90
3818;DHT22;1924;48.078;11.516;2024-03-02T00:18:23;6.90;99.90
3818;DHT22;1924;48.078;11.516;2024-03-02T00:20:53;6.90;99.90
3818;DHT22;1924;48.078;11.516;2024-03-02T00:23:20;6.90;99.90
3818;DHT22;1924;48.078;11.516;2024-03-02T00:25:50;6.90;99.90
3818;DHT22;1924;48.078;11.516;2024-03-02T00:28:20;6.80;99.90
3818;DHT22;1924;48.078;11.516;2024-03-02T00:30:55;6.70;99.90
3818;DHT22;1924;48.078;11.516;2024-03-02T00:33:25;6.70;99.90
3818;DHT22;1924;48.078;11.516;2024-03-02T00:35:53;6.70;99.90
3818;DHT22;1924;48.078;11.516;2024-03-02T00:38:20;6.80;99.90
3818;DHT22;1924;48.078;11.516;2024-03-02T00:40:49;6.80;99.90
3818;DHT22;1924;48.078;11.516;2024-03-02T00:43:43;6.80;99.90
3818;DHT22;1924;48.078;11.516;2024-03-02T00:46:15;6.70;99.90
3818;DHT22;1924;48.078;11.516;2024-03-02T00:48:48;6.60;99.90
3818;DHT22;1924;48.078;11.516;2024-03-02T00:51:17;6.50;99.90
3818;DHT22;1924;48.078;11.516;2024-03-02T00:53:44;6.40;99.90
3818;DHT22;1924;48.078;11.516;2024-03-02T00:56:12;6.30;99.90
3818;DHT22;1924;48.078;11.516;2024-03-02T00:58:40;6.30;99.90
3818;DHT22;1924;48.078;11.516;2024-03-02T01:01:07;6.40;99.90
3818;DHT22;1924;48.078;11.516;2024-03-02T01:03:33;6.50;99.90
3818;DHT22;1924;48.078;11.516;2024-03-02T01:06:01;6.50;99.90
3818;DHT22;1924;48.078;11.516;2024-03-02T01:08:27;6.50;99.90
3818;DHT22;1924;48.078;11.516;2024-03-02T01:10:54;6.40;99.90
3818;DHT22;1924;48.078;11.516;2024-03-02T05:02:43;6.40;99.90
3818;DHT22;1924;48.078;11.516;2024-03-02T05:05:10;6.40;99.90
3818;DHT22;1924;48.078;11.516;2024-03-02T05:07:36;6.40;99.90
3818;DHT22;1924;48.078;11.516;2024-03-02T05:10:04;6.40;99.90
3818;DHT22;1924;48.078;11.516;2024-03-02T05:12:30;6.40;99.90
3818;DHT22;1924;48.078;11.516;2024-03-02T05:15:15;6.40;99.90
3818;DHT22;1924;48.078;11.516;2024-03-02T05:17:43;6.30;99.90
3818;DHT22;1924;48.078;11.516;2024-03-02T05:20:10;6.40;99.90
3818;DHT22;1924;48.078;11.516;2024-03-02T05:22:37;6.40;99.90
3818;DHT22;1924;48.078;11.516;2024-03-02T05:25:05;6.40;99.90
3818;DHT22;1924;48.078;11.516;2024-03-02T05:27:33;6.50;99.90
3818;DHT22;1924;48.078;11.516;2024-03-02T05:30:00;6.40;99.90
3818;DHT22;1924;48.078;11.516;2024-03-02T05:32:27;6.30;99.90
3818;DHT22;1924;48.078;11.516;2024-03-02T05:34:55;6.20;99.90
3818;DHT22;1924;48.078;11.516;2024-03-02T05:37:22;6.20;99.90
3818;DHT22;1924;48.078;11.516;2024-03-02T05:39:48;6.30;99.90
3818;DHT22;1924;48.078;11.516;2024-03-02T05:42:15;6.40;99.90
3818;DHT22;1924;48.078;11.516;2024-03-02T05:44:42;6.40;99.90
3818;DHT22;1924;48.078;11.516;2024-03-02T05:47:09;6.40;99.90
3818;DHT22;1924;48.078;11.516;2024-03-02T05:49:36;6.30;99.90
3818;DHT22;1924;48.078;11.516;2024-03-02T05:52:04;6.30;99.90
3818;DHT22;1924;48.078;11.516;2024-03-02T05:54:31;6.30;99.90
3818;DHT22;1924;48.078;11.516;2024-03-02T05:56:59;6.20;99.90
3818;DHT22;1924;48.078;11.516;2024-03-02T05:59:42;6.20;99.90
3818;DHT22;1924;48.078;11.516;2024-03-02T06:02:09;6.30;99.90
3818;DHT22;1924;48.078;11.516;2024-03-02T06:04:35;6.30;99.90
3818;DHT22;1924;48.078;11.516;2024-03-02T06:07:03;6.30;99.90
3818;DHT22;1924;48.078;11.516;2024-03-02T06:09:30;6.30;99.90
3818;DHT22;1924;48.078;11.516;2024-03-02T06:11:57;6.20;99.90
3818;DHT22;1924;48.078;11.516;2024-03-02T06:14:24;6.30;99.90
3818;DHT22;1924;48.078;11.516;2024-03-02T06:16:51;6.40;99.90
3818;DHT22;1924;48.078;11.516;2024-03-02T06:19:18;6.40;99.90
3818;DHT22;1924;48.078;11.516;2024-03-02T06:21:44;6.40;99.90
3818;DHT22;1924;48.078;11.516;2024-03-02T06:24:12;6.50;99.90
3818;DHT22;1924;48.078;11.516;2024-03-02T06:26:39;6.40;99.90
3818;DHT22;1924;48.078;11.516;2024-03-02T06:29:06;6.40;99.90
3818;DHT22;1924;48.078;11.516;2024-03-02T06:31:33;6.50;99.90
3818;DHT22;1924;48.078;11.516;2024-03-02T06:34:00;6.60;99.90
3818;DHT22;1924;48.078;11.516;2024-03-02T06:36:28;6.60;99.90
3818;DHT22;1924;48.078;11.516;2024-03-02T06:38:55;6.50;99.90
3818;DHT22;1924;48.078;11.516;2024-03-02T06:41:23;6.40;99.90
3818;DHT22;1924;48.078;11.516;2024-03-02T06:43:50;6.30;99.90
3818;DHT22;1924;48.078;11.516;2024-03-02T06:46:24;6.40;99.90
3818;DHT22;1924;48.078;11.516;2024-03-02T06:48:51;6.40;99.90
3818;DHT22;1924;48.078;11.516;2024-03-02T06:51:18;6.50;99.90
3818;DHT22;1924;48.078;11.516;2024-03-02T06:53:44;6.50;99.90
3818;DHT22;1924;48.078;11.516;2024-03-02T06:56:12;6.40;99.90
3818;DHT22;1924;48.078;11.516;2024-03-02T06:58:40;6.30;99.90
3818;DHT22;1924;48.078;11.516;2024-03-02T07:01:08;6.40;99.90
3818;DHT22;1924;48.078;11.516;2024-03-02T07:03:35;6.30;99.90
3818;DHT22;1924;48.078;11.516;2024-03-02T07:06:02;6.30;99.90
3818;DHT22;1924;48.078;11.516;2024-03-02T07:08:29;6.30;99.90
3818;DHT22;1924;48.078;11.516;2024-03-02T07:10:56;6.40;99.90
3818;DHT22;1924;48.078;11.516;2024-03-02T07:13:23;6.40;99.90
3818;DHT22;1924;48.078;11.516;2024-03-02T07:15:51;6.40;99.90
3818;DHT22;1924;48.078;11.516;2024-03-02T07:18:46;6.40;99.90
3818;DHT22;1924;48.078;11.516;2024-03-02T07:21:17;6.50;99.90
3818;DHT22;1924;48.078;11.516;2024-03-02T07:23:43;6.50;99.90
3818;DHT22;1924;48.078;11.516;2024-03-02T07:26:10;6.60;99.90
3818;DHT22;1924;48.078;11.516;2024-03-02T07:28:37;6.60;99.90
3818;DHT22;1924;48.078;11.516;2024-03-02T07:31:05;6.50;99.90
3818;DHT22;1924;48.078;11.516;2024-03-02T07:33:33;6.60;99.90
3818;DHT22;1924;48.078;11.516;2024-03-02T07:36:00;6.70;99.90
3818;DHT22;1924;48.078;11.516;2024-03-02T07:38:27;6.80;99.90
3818;DHT22;1924;48.078;11.516;2024-03-02T07:40:54;6.90;99.90
3818;DHT22;1924;48.078;11.516;2024-03-02T07:43:22;6.90;99.90
3818;DHT22;1924;48.078;11.516;2024-03-02T07:45:48;6.80;99.90
3818;DHT22;1924;48.078;11.516;2024-03-02T07:48:17;6.80;99.90
3818;DHT22;1924;48.078;11.516;2024-03-02T07:50:43;6.80;99.90
3818;DHT22;1924;48.078;11.516;2024-03-02T07:53:10;6.90;99.90
3818;DHT22;1924;48.078;11.516;2024-03-02T07:55:37;6.90;99.90
3818;DHT22;1924;48.078;11.516;2024-03-02T07:58:04;7.10;99.90
3818;DHT22;1924;48.078;11.516;2024-03-02T08:00:31;7.30;99.90
3818;DHT22;1924;48.078;11.516;2024-03-02T08:02:57;7.40;99.90
3818;DHT22;1924;48.078;11.516;2024-03-02T08:05:26;7.40;99.90
3818;DHT22;1924;48.078;11.516;2024-03-02T08:07:52;7.60;99.90
3818;DHT22;1924;48.078;11.516;2024-03-02T08:10:20;7.80;99.90
3818;DHT22;1924;48.078;11.516;2024-03-02T08:12:48;8.00;99.90
3818;DHT22;1924;48.078;11.516;2024-03-02T08:15:14;8.20;99.90
3818;DHT22;1924;48.078;11.516;2024-03-02T08:17:41;8.40;99.90
3818;DHT22;1924;48.078;11.516;2024-03-02T08:20:13;8.60;99.90
3818;DHT22;1924;48.078;11.516;2024-03-02T08:22:42;8.70;99.90
3818;DHT22;1924;48.078;11.516;2024-03-02T08:25:09;8.80;99.90
3818;DHT22;1924;48.078;11.516;2024-03-02T08:27:36;8.60;99.90
3818;DHT22;1924;48.078;11.516;2024-03-02T08:30:03;8.70;99.90
3818;DHT22;1924;48.078;11.516;2024-03-02T08:32:32;8.90;99.90
3818;DHT22;1924;48.078;11.516;2024-03-02T08:34:58;8.90;99.90
3818;DHT22;1924;48.078;11.516;2024-03-02T08:37:25;8.70;99.90
3818;DHT22;1924;48.078;11.516;2024-03-02T08:39:53;8.70;99.90
3818;DHT22;1924;48.078;11.516;2024-03-02T08:42:20;8.90;99.90
3818;DHT22;1924;48.078;11.516;2024-03-02T08:44:47;9.00;99.90
3818;DHT22;1924;48.078;11.516;2024-03-02T08:47:14;8.90;99.90
3818;DHT22;1924;48.078;11.516;2024-03-02T08:49:41;8.80;99.90
3818;DHT22;1924;48.078;11.516;2024-03-02T08:52:08;8.70;99.90
3818;DHT22;1924;48.078;11.516;2024-03-02T08:54:35;8.90;99.90
3818;DHT22;1924;48.078;11.516;2024-03-02T08:57:05;9.10;99.90
3818;DHT22;1924;48.078;11.516;2024-03-02T08:59:34;9.00;99.90
3818;DHT22;1924;48.078;11.516;2024-03-02T09:02:00;9.00;99.90
3818;DHT22;1924;48.078;11.516;2024-03-02T09:04:27;8.80;99.90
3818;DHT22;1924;48.078;11.516;2024-03-02T09:06:54;8.80;99.90
3818;DHT22;1924;48.078;11.516;2024-03-02T09:09:23;8.80;99.90
3818;DHT22;1924;48.078;11.516;2024-03-02T09:11:50;8.90;99.90
3818;DHT22;1924;48.078;11.516;2024-03-02T09:14:18;9.10;99.90
3818;DHT22;1924;48.078;11.516;2024-03-02T09:16:45;8.90;99.90
3818;DHT22;1924;48.078;11.516;2024-03-02T09:19:11;8.80;99.90
3818;DHT22;1924;48.078;11.516;2024-03-02T09:21:38;9.00;99.90
3818;DHT22;1924;48.078;11.516;2024-03-02T09:24:06;9.00;99.90
3818;DHT22;1924;48.078;11.516;2024-03-02T09:26:35;9.00;99.90
3818;DHT22;1924;48.078;11.516;2024-03-02T09:29:02;9.00;99.90
3818;DHT22;1924;48.078;11.516;2024-03-02T09:31:31;9.10;99.90
3818;DHT22;1924;48.078;11.516;2024-03-02T09:33:57;9.00;99.90
3818;DHT22;1924;48.078;11.516;2024-03-02T09:36:24;8.80;99.90
3818;DHT22;1924;48.078;11.516;2024-03-02T09:38:51;8.90;99.90
3818;DHT22;1924;48.078;11.516;2024-03-02T09:41:18;8.70;99.90
3818;DHT22;1924;48.078;11.516;2024-03-02T09:43:45;8.70;99.90
3818;DHT22;1924;48.078;11.516;2024-03-02T09:46:13;8.70;99.90
3818;DHT22;1924;48.078;11.516;2024-03-02T09:48:41;8.80;99.90
3818;DHT22;1924;48.078;11.516;2024-03-02T09:51:08;8.90;99.90
3818;DHT22;1924;48.078;11.516;2024-03-02T09:53:35;9.00;99.90
3818;DHT22;1924;48.078;11.516;2024-03-02T09:56:02;9.20;99.90
3818;DHT22;1924;48.078;11.516;2024-03-02T09:58:30;9.20;99.90
3818;DHT22;1924;48.078;11.516;2024-03-02T10:00:57;9.30;99.90
3818;DHT22;1924;48.078;11.516;2024-03-02T10:03:24;9.30;99.90
3818;DHT22;1924;48.078;11.516;2024-03-02T10:05:52;9.20;99.90
3818;DHT22;1924;48.078;11.516;2024-03-02T10:08:19;9.40;99.90
3818;DHT22;1924;48.078;11.516;2024-03-02T10:10:46;9.70;99.90
3818;DHT22;1924;48.078;11.516;2024-03-02T10:13:13;9.80;99.90
3818;DHT22;1924;48.078;11.516;2024-03-02T10:15:42;9.80;99.90
3818;DHT22;1924;48.078;11.516;2024-03-02T10:18:09;9.90;99.90
3818;DHT22;1924;48.078;11.516;2024-03-02T10:20:37;10.10;99.90
3818;DHT22;1924;48.078;11.516;2024-03-02T10:23:12;10.10;99.90
3818;DHT22;1924;48.078;11.516;2024-03-02T10:25:39;9.90;99.90
3818;DHT22;1924;48.078;11.516;2024-03-02T10:28:06;9.90;99.90
3818;DHT22;1924;48.078;11.516;2024-03-02T10:30:33;9.90;99.90
3818;DHT22;1924;48.078;11.516;2024-03-02T10:33:01;9.80;99.90
3818;DHT22;1924;48.078;11.516;2024-03-02T10:35:28;9.90;99.90
3818;DHT22;1924;48.078;11.516;2024-03-02T10:37:58;10.10;99.90
3818;DHT22;1924;48.078;11.516;2024-03-02T10:40:27;10.40;99.90
3818;DHT22;1924;48.078;11.516;2024-03-02T10:42:54;10.40;99.90
3818;DHT22;1924;48.078;11.516;2024-03-02T10:45:21;10.60;99.90
3818;DHT22;1924;48.078;11.516;2024-03-02T10:47:49;11.00;99.90
3818;DHT22;1924;48.078;11.516;2024-03-02T10:50:17;10.80;99.90
3818;DHT22;1924;48.078;11.516;2024-03-02T10:52:44;10.90;99.90
3818;DHT22;1924;48.078;11.516;2024-03-02T10:55:11;11.20;99.90
3818;DHT22;1924;48.078;11.516;2024-03-02T10:57:45;11.20;99.90
3818;DHT22;1924;48.078;11.516;2024-03-02T11:00:16;11.30;99.90
3818;DHT22;1924;48.078;11.516;2024-03-02T11:02:50;11.50;99.90
3818;DHT22;1924;48.078;11.516;2024-03-02T11:05:23;11.90;99.90
3818;DHT22;1924;48.078;11.516;2024-03-02T11:07:53;12.40;99.90
3818;DHT22;1924;48.078;11.516;2024-03-02T11:10:23;12.50;99.90
3818;DHT22;1924;48.078;11.516;2024-03-02T11:12:56;12.20;99.90
3818;DHT22;1924;48.078;11.516;2024-03-02T11:15:27;11.90;99.90
3818;DHT22;1924;48.078;11.516;2024-03-02T11:17:54;11.50;99.90
3818;DHT22;1924;48.078;11.516;2024-03-02T11:20:22;11.70;99.90
3818;DHT22;1924;48.078;11.516;2024-03-02T11:22:50;12.00;99.90
3818;DHT22;1924;48.078;11.516;2024-03-02T11:25:23;11.90;99.90
3818;DHT22;1924;48.078;11.516;2024-03-02T11:28:02;12.30;99.90
3818;DHT22;1924;48.078;11.516;2024-03-02T11:30:51;12.30;99.90
3818;DHT22;1924;48.078;11.516;2024-03-02T11:33:27;12.20;99.90
3818;DHT22;1924;48.078;11.516;2024-03-02T11:35:56;12.10;99.90
3818;DHT22;1924;48.078;11.516;2024-03-02T11:38:28;12.60;99.90
3818;DHT22;1924;48.078;11.516;2024-03-02T11:40:54;12.60;99.90
3818;DHT22;1924;48.078;11.516;2024-03-02T11:43:22;12.00;99.90
3818;DHT22;1924;48.078;11.516;2024-03-02T11:45:56;11.90;99.90
3818;DHT22;1924;48.078;11.516;2024-03-02T11:48:24;12.00;99.90
3818;DHT22;1924;48.078;11.516;2024-03-02T11:50:51;11.90;99.90
3818;DHT22;1924;48.078;11.516;2024-03-02T11:53:21;12.10;99.90
3818;DHT22;1924;48.078;11.516;2024-03-02T11:55:49;12.40;99.90
3818;DHT22;1924;48.078;11.516;2024-03-02T11:58:16;12.60;99.90
3818;DHT22;1924;48.078;11.516;2024-03-02T12:00:47;12.90;99.90
3818;DHT22;1924;48.078;11.516;2024-03-02T12:03:14;12.90;99.90
3818;DHT22;1924;48.078;11.516;2024-03-02T12:05:42;12.90;99.90
3818;DHT22;1924;48.078;11.516;2024-03-02T12:08:09;13.10;99.90
3818;DHT22;1924;48.078;11.516;2024-03-02T12:10:37;13.20;99.90
3818;DHT22;1924;48.078;11.516;2024-03-02T12:13:06;13.40;99.20
3818;DHT22;1924;48.078;11.516;2024-03-02T12:15:36;13.00;98.60
3818;DHT22;1924;48.078;11.516;2024-03-02T12:18:05;12.80;99.40
3818;DHT22;1924;48.078;11.516;2024-03-02T12:20:33;12.80;99.90
3818;DHT22;1924;48.078;11.516;2024-03-02T12:23:02;13.20;99.20
3818;DHT22;1924;48.078;11.516;2024-03-02T12:25:30;13.70;99.50
3818;DHT22;1924;48.078;11.516;2024-03-02T12:28:00;13.90;98.20
3818;DHT22;1924;48.078;11.516;2024-03-02T12:30:29;14.20;97.70
3818;DHT22;1924;48.078;11.516;2024-03-02T12:32:56;14.20;96.70
3818;DHT22;1924;48.078;11.516;2024-03-02T12:35:25;13.80;96.50
3818;DHT22;1924;48.078;11.516;2024-03-02T12:37:53;13.50;98.10
3818;DHT22;1924;48.078;11.516;2024-03-02T12:40:20;13.40;96.90
3818;DHT22;1924;48.078;11.516;2024-03-02T12:42:48;13.40;97.40
3818;DHT22;1924;48.078;11.516;2024-03-02T12:45:15;13.30;97.40
3818;DHT22;1924;48.078;11.516;2024-03-02T12:47:49;13.30;97.40
3818;DHT22;1924;48.078;11.516;2024-03-02T12:50:16;13.10;97.90
3818;DHT22;1924;48.078;11.516;2024-03-02T12:52:50;13.40;98.30
3818;DHT22;1924;48.078;11.516;2024-03-02T12:55:17;13.40;98.20
3818;DHT22;1924;48.078;11.516;2024-03-02T12:57:44;13.50;98.20
3818;DHT22;1924;48.078;11.516;2024-03-02T13:00:11;13.60;98.00
3818;DHT22;1924;48.078;11.516;2024-03-02T13:02:41;13.40;98.00
3818;DHT22;1924;48.078;11.516;2024-03-02T13:05:08;13.40;98.20
3818;DHT22;1924;48.078;11.516;2024-03-02T13:07:36;13.30;98.20
3818;DHT22;1924;48.078;11.516;2024-03-02T13:10:05;13.40;97.70
3818;DHT22;1924;48.078;11.516;2024-03-02T13:12:33;13.50;98.20
3818;DHT22;1924;48.078;11.516;2024-03-02T13:14:59;13.70;97.00
3818;DHT22;1924;48.078;11.516;2024-03-02T13:17:27;13.80;96.80
3818;DHT22;1924;48.078;11.516;2024-03-02T13:19:56;13.50;96.70
3818;DHT22;1924;48.078;11.516;2024-03-02T13:22:23;13.70;97.50
3818;DHT22;1924;48.078;11.516;2024-03-02T13:24:50;13.70;96.30
3818;DHT22;1924;48.078;11.516;2024-03-02T13:27:18;13.70;96.10
3818;DHT22;1924;48.078;11.516;2024-03-02T13:29:46;13.80;96.60
3818;DHT22;1924;48.078;11.516;2024-03-02T13:32:13;13.90;95.50
3818;DHT22;1924;48.078;11.516;2024-03-02T13:34:41;13.70;96.20
3818;DHT22;1924;48.078;11.516;2024-03-02T13:37:10;13.70;95.20
3818;DHT22;1924;48.078;11.516;2024-03-02T13:39:41;13.40;95.30
3818;DHT22;1924;48.078;11.516;2024-03-02T13:42:08;13.30;94.80
3818;DHT22;1924;48.078;11.516;2024-03-02T13:44:37;13.20;95.50
3818;DHT22;1924;48.078;11.516;2024-03-02T13:47:05;13.20;95.00
3818;DHT22;1924;48.078;11.516;2024-03-02T13:49:31;13.00;94.90
3818;DHT22;1924;48.078;11.516;2024-03-02T13:52:03;12.90;94.90
3818;DHT22;1924;48.078;11.516;2024-03-02T13:54:39;12.80;94.30
3818;DHT22;1924;48.078;11.516;2024-03-02T13:57:07;12.80;93.90
3818;DHT22;1924;48.078;11.516;2024-03-02T13:59:35;12.70;94.00
3818;DHT22;1924;48.078;11.516;2024-03-02T14:02:04;12.60;94.20
3818;DHT22;1924;48.078;11.516;2024-03-02T14:04:31;12.60;94.40
3818;DHT22;1924;48.078;11.516;2024-03-02T14:06:58;12.70;95.00
3818;DHT22;1924;48.078;11.516;2024-03-02T14:09:25;12.50;95.10
3818;DHT22;1924;48.078;11.516;2024-03-02T14:11:52;12.50;95.90
3818;DHT22;1924;48.078;11.516;2024-03-02T14:14:19;12.50;96.00
3818;DHT22;1924;48.078;11.516;2024-03-02T14:16:46;12.60;96.20
3818;DHT22;1924;48.078;11.516;2024-03-02T14:19:14;12.60;96.50
3818;DHT22;1924;48.078;11.516;2024-03-02T14:21:41;12.70;95.60
3818;DHT22;1924;48.078;11.516;2024-03-02T14:24:08;12.60;95.80
3818;DHT22;1924;48.078;11.516;2024-03-02T14:26:35;12.80;95.50
3818;DHT22;1924;48.078;11.516;2024-03-02T14:29:03;12.70;94.80
3818;DHT22;1924;48.078;11.516;2024-03-02T14:31:30;12.60;95.10
3818;DHT22;1924;48.078;11.516;2024-03-02T14:33:57;12.50;95.00
3818;DHT22;1924;48.078;11.516;2024-03-02T14:36:25;12.40;94.50
3818;DHT22;1924;48.078;11.516;2024-03-02T14:38:53;12.30;94.30
3818;DHT22;1924;48.078;11.516;2024-03-02T14:41:20;12.30;94.80
3818;DHT22;1924;48.078;11.516;2024-03-02T14:43:47;12.40;94.50
3818;DHT22;1924;48.078;11.516;2024-03-02T14:46:15;12.50;94.00
3818;DHT22;1924;48.078;11.516;2024-03-02T14:48:44;12.40;94.10
3818;DHT22;1924;48.078;11.516;2024-03-02T14:51:12;12.40;93.90
3818;DHT22;1924;48.078;11.516;2024-03-02T14:53:40;12.20;94.10
3818;DHT22;1924;48.078;11.516;2024-03-02T14:56:07;12.10;94.40
3818;DHT22;1924;48.078;11.516;2024-03-02T14:58:35;12.20;94.80
3818;DHT22;1924;48.078;11.516;2024-03-02T15:01:03;12.20;94.40
3818;DHT22;1924;48.078;11.516;2024-03-02T15:03:30;12.20;94.70
3818;DHT22;1924;48.078;11.516;2024-03-02T15:05:56;12.30;94.50
3818;DHT22;1924;48.078;11.516;2024-03-02T15:08:23;12.40;94.50
3818;DHT22;1924;48.078;11.516;2024-03-02T15:10:52;12.40;94.40
3818;DHT22;1924;48.078;11.516;2024-03-02T15:13:21;12.40;94.60
3818;DHT22;1924;48.078;11.516;2024-03-02T15:15:47;12.40;94.50
3818;DHT22;1924;48.078;11.516;2024-03-02T15:18:14;12.30;94.60
3818;DHT22;1924;48.078;11.516;2024-03-02T15:20:41;12.40;94.60
3818;DHT22;1924;48.078;11.516;2024-03-02T15:23:08;12.40;94.50
3818;DHT22;1924;48.078;11.516;2024-03-02T15:25:35;12.30;94.40
3818;DHT22;1924;48.078;11.516;2024-03-02T15:28:03;12.20;95.00
3818;DHT22;1924;48.078;11.516;2024-03-02T15:30:30;12.20;95.20
3818;DHT22;1924;48.078;11.516;2024-03-02T15:32:57;12.20;95.50
3818;DHT22;1924;48.078;11.516;2024-03-02T15:35:23;12.10;95.30
3818;DHT22;1924;48.078;11.516;2024-03-02T15:37:51;12.10;95.30
3818;DHT22;1924;48.078;11.516;2024-03-02T15:40:18;12.00;95.60
3818;DHT22;1924;48.078;11.516;2024-03-02T15:42:44;11.90;95.80
3818;DHT22;1924;48.078;11.516;2024-03-02T15:45:13;12.00;96.10
3818;DHT22;1924;48.078;11.516;2024-03-02T15:47:40;11.90;96.10
3818;DHT22;1924;48.078;11.516;2024-03-02T15:50:07;11.90;96.40
3818;DHT22;1924;48.078;11.516;2024-03-02T15:52:34;12.00;96.40
3818;DHT22;1924;48.078;11.516;2024-03-02T15:55:01;11.90;96.60
3818;DHT22;1924;48.078;11.516;2024-03-02T15:57:30;11.90;96.70
3818;DHT22;1924;48.078;11.516;2024-03-02T15:59:57;11.90;96.80
3818;DHT22;1924;48.078;11.516;2024-03-02T16:02:27;11.80;96.90
3818;DHT22;1924;48.078;11.516;2024-03-02T16:04:55;11.70;97.10
3818;DHT22;1924;48.078;11.516;2024-03-02T16:07:21;11.70;97.30
3818;DHT22;1924;48.078;11.516;2024-03-02T16:09:48;11.70;97.40
3818;DHT22;1924;48.078;11.516;2024-03-02T16:12:15;11.70;97.50
3818;DHT22;1924;48.078;11.516;2024-03-02T16:14:42;11.60;97.70
3818;DHT22;1924;48.078;11.516;2024-03-02T16:17:09;11.50;98.00
3818;DHT22;1924;48.078;11.516;2024-03-02T16:19:37;11.50;98.20
3818;DHT22;1924;48.078;11.516;2024-03-02T16:22:06;11.40;98.40
3818;DHT22;1924;48.078;11.516;2024-03-02T16:24:36;11.40;98.70
3818;DHT22;1924;48.078;11.516;2024-03-02T16:27:03;11.30;98.90
3818;DHT22;1924;48.078;11.516;2024-03-02T16:29:30;11.30;99.00
3818;DHT22;1924;48.078;11.516;2024-03-02T16:31:57;11.20;99.10
3818;DHT22;1924;48.078;11.516;2024-03-02T16:34:24;11.20;99.40
3818;DHT22;1924;48.078;11.516;2024-03-02T16:36:52;11.10;99.50
3818;DHT22;1924;48.078;11.516;2024-03-02T16:39:18;11.10;99.70
3818;DHT22;1924;48.078;11.516;2024-03-02T16:41:45;11.10;99.90
3818;DHT22;1924;48.078;11.516;2024-03-02T16:44:13;11.00;99.90
3818;DHT22;1924;48.078;11.516;2024-03-02T16:46:39;10.90;99.90
3818;DHT22;1924;48.078;11.516;2024-03-02T16:49:06;10.90;99.90
3818;DHT22;1924;48.078;11.516;2024-03-02T16:51:38;10.90;99.90
3818;DHT22;1924;48.078;11.516;2024-03-02T16:54:06;10.80;99.90
3818;DHT22;1924;48.078;11.516;2024-03-02T16:56:38;10.80;99.90
3818;DHT22;1924;48.078;11.516;2024-03-02T16:59:05;10.80;99.90
3818;DHT22;1924;48.078;11.516;2024-03-02T17:01:32;10.80;99.90
3818;DHT22;1924;48.078;11.516;2024-03-02T17:03:59;10.80;99.90
3818;DHT22;1924;48.078;11.516;2024-03-02T17:06:26;10.80;99.90
3818;DHT22;1924;48.078;11.516;2024-03-02T17:08:52;10.80;99.90
3818;DHT22;1924;48.078;11.516;2024-03-02T17:11:20;10.80;99.90
3818;DHT22;1924;48.078;11.516;2024-03-02T17:13:47;10.70;99.90
3818;DHT22;1924;48.078;11.516;2024-03-02T17:16:16;10.50;99.90
3818;DHT22;1924;48.078;11.516;2024-03-02T17:18:43;10.30;99.90
3818;DHT22;1924;48.078;11.516;2024-03-02T17:21:10;10.20;99.90
3818;DHT22;1924;48.078;11.516;2024-03-02T17:23:36;10.20;99.90
3818;DHT22;1924;48.078;11.516;2024-03-02T17:26:03;10.10;99.90
3818;DHT22;1924;48.078;11.516;2024-03-02T17:28:31;10.10;99.90
3818;DHT22;1924;48.078;11.516;2024-03-02T17:30:59;10.10;99.90
3818;DHT22;1924;48.078;11.516;2024-03-02T17:33:26;10.00;99.90
3818;DHT22;1924;48.078;11.516;2024-03-02T17:35:52;10.00;99.90
3818;DHT22;1924;48.078;11.516;2024-03-02T17:38:20;9.90;99.90
3818;DHT22;1924;48.078;11.516;2024-03-02T17:40:47;9.80;99.90
3818;DHT22;1924;48.078;11.516;2024-03-02T17:43:14;9.80;99.90
3818;DHT22;1924;48.078;11.516;2024-03-02T17:45:42;9.80;99.90
3818;DHT22;1924;48.078;11.516;2024-03-02T17:48:09;9.80;99.90
3818;DHT22;1924;48.078;11.516;2024-03-02T17:50:37;9.80;99.90
3818;DHT22;1924;48.078;11.516;2024-03-02T17:53:04;9.70;99.90
3818;DHT22;1924;48.078;11.516;2024-03-02T17:55:30;9.70;99.90
3818;DHT22;1924;48.078;11.516;2024-03-02T17:57:57;9.90;99.90
3818;DHT22;1924;48.078;11.516;2024-03-02T18:00:24;9.80;99.90
3818;DHT22;1924;48.078;11.516;2024-03-02T18:02:52;9.60;99.90
3818;DHT22;1924;48.078;11.516;2024-03-02T18:05:19;9.50;99.90
3818;DHT22;1924;48.078;11.516;2024-03-02T18:07:46;9.50;99.90
3818;DHT22;1924;48.078;11.516;2024-03-02T18:10:13;9.50;99.90
3818;DHT22;1924;48.078;11.516;2024-03-02T18:12:39;9.50;99.90
3818;DHT22;1924;48.078;11.516;2024-03-02T18:15:07;9.50;99.90
3818;DHT22;1924;48.078;11.516;2024-03-02T18:17:35;9.50;99.90
3818;DHT22;1924;48.078;11.516;2024-03-02T18:20:04;9.50;99.90
3818;DHT22;1924;48.078;11.516;2024-03-02T18:22:32;9.40;99.90
3818;DHT22;1924;48.078;11.516;2024-03-02T18:25:00;9.30;99.90
3818;DHT22;1924;48.078;11.516;2024-03-02T18:27:26;9.20;99.90
3818;DHT22;1924;48.078;11.516;2024-03-02T18:29:53;9.30;99.90
3818;DHT22;1924;48.078;11.516;2024-03-02T18:32:20;9.20;99.90
3818;DHT22;1924;48.078;11.516;2024-03-02T18:34:47;9.20;99.90
3818;DHT22;1924;48.078;11.516;2024-03-02T18:37:15;9.20;99.90
3818;DHT22;1924;48.078;11.516;2024-03-02T18:39:47;9.10;99.90
3818;DHT22;1924;48.078;11.516;2024-03-02T18:42:14;9.00;99.90
3818;DHT22;1924;48.078;11.516;2024-03-02T18:44:42;8.90;99.90
3818;DHT22;1924;48.078;11.516;2024-03-02T18:47:10;8.90;99.90
3818;DHT22;1924;48.078;11.516;2024-03-02T18:49:42;8.90;99.90
3818;DHT22;1924;48.078;11.516;2024-03-02T18:52:10;8.80;99.90
3818;DHT22;1924;48.078;11.516;2024-03-02T18:54:38;8.90;99.90
3818;DHT22;1924;48.078;11.516;2024-03-02T18:57:05;8.80;99.90
3818;DHT22;1924;48.078;11.516;2024-03-02T18:59:32;8.80;99.90
3818;DHT22;1924;48.078;11.516;2024-03-02T19:01:58;8.80;99.90
3818;DHT22;1924;48.078;11.516;2024-03-02T19:04:25;8.80;99.90
3818;DHT22;1924;48.078;11.516;2024-03-02T19:06:52;8.90;99.90
3818;DHT22;1924;48.078;11.516;2024-03-02T19:09:19;8.90;99.90
3818;DHT22;1924;48.078;11.516;2024-03-02T19:11:47;8.80;99.90
3818;DHT22;1924;48.078;11.516;2024-03-02T19:14:13;8.70;99.90
3818;DHT22;1924;48.078;11.516;2024-03-02T19:16:40;8.80;99.90
3818;DHT22;1924;48.078;11.516;2024-03-02T19:19:09;8.70;99.90
3818;DHT22;1924;48.078;11.516;2024-03-02T19:21:36;8.70;99.90
3818;DHT22;1924;48.078;11.516;2024-03-02T19:24:03;8.80;99.90
3818;DHT22;1924;48.078;11.516;2024-03-02T19:26:29;8.80;99.90
3818;DHT22;1924;48.078;11.516;2024-03-02T19:28:57;8.80;99.90
3818;DHT22;1924;48.078;11.516;2024-03-02T19:31:24;8.90;99.90
3818;DHT22;1924;48.078;11.516;2024-03-02T19:33:51;8.80;99.90
3818;DHT22;1924;48.078;11.516;2024-03-02T19:36:18;8.80;99.90
3818;DHT22;1924;48.078;11.516;2024-03-02T19:38:45;8.70;99.90
3818;DHT22;1924;48.078;11.516;2024-03-02T19:41:12;8.60;99.90
3818;DHT22;1924;48.078;11.516;2024-03-02T19:43:38;8.60;99.90
3818;DHT22;1924;48.078;11.516;2024-03-02T19:46:06;8.50;99.90
3818;DHT22;1924;48.078;11.516;2024-03-02T19:48:33;8.50;99.90